X  Close Metar Aviation Weather Data     KHVN Tweed-New Haven
Temperature
48°F Temperature
39°F Dewpoint
71% Humidity



Wind
3 MPH
5 KM/H
1 M/S
3 KTS



Calm
North
Current Conditions

Overcast Overcast
Pressure 1012.92 (hPa) - 29.91 (inHg)
Visibility 10 (mile) - 16.1 (km)
Airport
Airport-code KHVN

Location Tweed-New Haven 5 (mi)

Metar:
KHVN 301853Z VRB03KT 10SM OVC022 09/04 A2991 RMK AO2 SLP129 T00890044

Time: 03-30-2020 14:53 EDT